Ankergracht — PCQL — position and weather

sailwx.info

Track history (hours):
 
Tides and Currents Weather Stations Pressure Air Temp Water Temp Dewpoint Dewpoint Depression Visibility Wind Speed Wind Dir Waves Ship Positions

Ankergracht

Last reported at 2014-Oct-23 18:00 UTC. Time now 2014-Oct-24 08:37 UTC.
Position N 37°12' E 018°00'.

Length 130 m; beam 19 m; draft 9 m.

Type: Ship (hazmat cat A). MMSI: 244852000.

Wind from 320 at 10 knots

Barometer 1007.2 mb
Air temperature 15.1 ° C
Visibility: greater than 5.4 NM
Dewpoint 13.4 ° C
Water temperature 23.6 ° C

Date/timePositionNaut miles runAvg speedWind from/ knotsBaromVisibWave heightAir tempDewpointWater temp
2014-Oct-23 18:00N 37°12' E 018°00'9714.4 320 / 101007.2 5.4 15.113.423.6
2014-Oct-23 11:16N 37°45' E 016°05'1113.9
2014-Oct-23 10:30N 37°48' E 015°53'2712.9
2014-Oct-23 08:25N 38°11' E 015°35'1011.4
2014-Oct-23 07:32N 38°21' E 015°37'1514.9
2014-Oct-23 06:33N 38°31' E 015°23'1614.4
2014-Oct-23 05:28N 38°42' E 015°09'32012.7
2014-Oct-22 04:21N 42°32' E 010°17'2412.4
2014-Oct-22 02:24N 42°50' E 009°53'1212.3
2014-Oct-22 01:27N 42°58' E 009°43'1111.8
2014-Oct-22 00:33N 43°08' E 009°37'1111.1
2014-Oct-21 23:33N 43°18' E 009°31'1110.6
2014-Oct-21 22:33N 43°28' E 009°26'1212.0
2014-Oct-21 21:33N 43°40' E 009°21'3 3.4
2014-Oct-21 20:33N 43°43' E 009°19'1212.0
2014-Oct-21 19:33N 43°54' E 009°13'8 7.7
2014-Oct-21 18:33N 44°01' E 009°09'6 6.4
2014-Oct-21 17:33N 44°07' E 009°06'6 6.2
2014-Oct-21 16:33N 44°13' E 009°02'4 3.8
2014-Oct-21 15:33N 44°16' E 009°00'3 3.5
2014-Oct-21 14:33N 44°19' E 008°58'5 4.5
2014-Oct-21 13:33N 44°24' E 008°56'2 2.1
2014-Oct-21 12:32N 44°24' E 008°53'0 0.0
2014-Oct-21 11:32N 44°24' E 008°53'0 0.0
2014-Oct-21 10:32N 44°24' E 008°53'0 0.0
2014-Oct-21 09:29N 44°24' E 008°53'0 0.0
2014-Oct-21 08:32N 44°24' E 008°53'0 0.0
2014-Oct-21 07:29N 44°24' E 008°53'0 0.0
2014-Oct-21 06:32N 44°24' E 008°53'0 0.0
2014-Oct-21 05:32N 44°24' E 008°53'0 0.0
2014-Oct-21 04:32N 44°24' E 008°53'0 0.0
2014-Oct-21 03:32N 44°24' E 008°53'0 0.0
2014-Oct-21 02:32N 44°24' E 008°53'0 0.0
2014-Oct-21 01:32N 44°24' E 008°53'0 0.0
2014-Oct-21 00:32N 44°24' E 008°53'0 0.0
2014-Oct-20 23:32N 44°24' E 008°53'0 0.0
2014-Oct-20 22:32N 44°24' E 008°53'0 0.0
2014-Oct-20 21:32N 44°24' E 008°53'0 0.0
2014-Oct-20 20:29N 44°24' E 008°53'0 0.0
2014-Oct-20 19:29N 44°24' E 008°53'0 0.0
2014-Oct-20 18:32N 44°24' E 008°53'0 0.0
2014-Oct-20 17:29N 44°24' E 008°53'0 0.0
2014-Oct-20 16:32N 44°24' E 008°53'0 0.0
2014-Oct-20 15:32N 44°24' E 008°53'0 0.0
2014-Oct-20 14:32N 44°24' E 008°53'0 0.0
2014-Oct-20 13:32N 44°24' E 008°53'0 0.0
2014-Oct-20 12:32N 44°24' E 008°53'0 0.0
2014-Oct-20 11:29N 44°24' E 008°53'0 0.0
2014-Oct-20 10:26N 44°24' E 008°53'0 0.0
2014-Oct-20 09:32N 44°24' E 008°53'0 0.0
2014-Oct-20 08:32N 44°24' E 008°53'0 0.0
2014-Oct-20 07:32N 44°24' E 008°53'0 0.0
2014-Oct-20 06:32N 44°24' E 008°53'0 0.0
2014-Oct-20 05:32N 44°24' E 008°53'0 0.0
2014-Oct-20 04:32N 44°24' E 008°53'0 0.0
2014-Oct-20 03:32N 44°24' E 008°53'0 0.0
2014-Oct-20 02:31N 44°24' E 008°53'0 0.0
2014-Oct-20 01:31N 44°24' E 008°53'0 0.0
2014-Oct-20 00:31N 44°24' E 008°53'0 0.0
2014-Oct-19 23:31N 44°24' E 008°53'0 0.0
2014-Oct-19 22:31N 44°24' E 008°53'0 0.0
2014-Oct-19 21:31N 44°24' E 008°53'0 0.0
2014-Oct-19 20:31N 44°24' E 008°53'0 0.0
2014-Oct-19 19:28N 44°24' E 008°53'0 0.0
2014-Oct-19 18:28N 44°24' E 008°53'0 0.0
2014-Oct-19 17:28N 44°24' E 008°53'0 0.0
2014-Oct-19 16:31N 44°24' E 008°53'0 0.0
2014-Oct-19 15:31N 44°24' E 008°53'0 0.0
2014-Oct-19 14:31N 44°24' E 008°53'0 0.0
2014-Oct-19 13:31N 44°24' E 008°53'0 0.0
2014-Oct-19 12:31N 44°24' E 008°53'0 0.0
2014-Oct-19 11:31N 44°24' E 008°53'0 0.0
2014-Oct-19 10:28N 44°24' E 008°53'0 0.0
2014-Oct-19 09:31N 44°24' E 008°53'0 0.0
2014-Oct-19 08:31N 44°24' E 008°53'0 0.0
2014-Oct-19 07:31N 44°24' E 008°53'0 0.0
2014-Oct-19 06:31N 44°24' E 008°53'0 0.0
2014-Oct-19 05:33N 44°24' E 008°53'0 0.0
2014-Oct-19 04:33N 44°24' E 008°53'0 0.0
2014-Oct-19 03:33N 44°24' E 008°53'0 0.0
2014-Oct-19 02:33N 44°24' E 008°53'0 0.0
2014-Oct-19 01:33N 44°24' E 008°53'0 0.0
2014-Oct-19 00:34N 44°24' E 008°53'0 0.0
2014-Oct-18 23:33N 44°24' E 008°53'0 0.0
2014-Oct-18 22:34N 44°24' E 008°53'0 0.0
2014-Oct-18 21:33N 44°24' E 008°53'0 0.0
2014-Oct-18 20:33N 44°24' E 008°53'0 0.0
2014-Oct-18 19:33N 44°24' E 008°53'0 0.0
2014-Oct-18 18:33N 44°24' E 008°53'0 0.0
2014-Oct-18 17:33N 44°24' E 008°53'0 0.0
2014-Oct-18 16:33N 44°24' E 008°53'0 0.0
2014-Oct-18 15:34N 44°24' E 008°53'0 0.2
2014-Oct-18 14:33N 44°24' E 008°54'6 5.6
2014-Oct-18 13:33N 44°20' E 008°59'1010.5
2014-Oct-18 12:34N 44°20' E 008°44'1010.2
2014-Oct-18 11:32N 44°19' E 008°30'0 0.0
2014-Oct-18 08:33N 44°19' E 008°30'0 0.0
2014-Oct-18 05:03N 44°19' E 008°30'0 0.9
2014-Oct-18 04:33N 44°19' E 008°30'4 3.9
2014-Oct-18 03:33N 44°15' E 008°31'1110.4
2014-Oct-18 02:32N 44°06' E 008°24'2911.6
2014-Oct-18 00:00N 43°42' E 008°00'23 9.4 010 / 81018.010.8 0.520.018.022.2
2014-Oct-17 21:33N 43°25' E 007°39'1211.8
2014-Oct-17 20:33N 43°17' E 007°27'1211.8
2014-Oct-17 19:33N 43°09' E 007°16'1211.9
2014-Oct-17 18:33N 43°01' E 007°03'1211.9
2014-Oct-17 17:33N 42°53' E 006°51'1211.7
2014-Oct-17 16:33N 42°45' E 006°40'1211.8
2014-Oct-17 15:33N 42°37' E 006°28'2712.3
2014-Oct-17 13:23N 42°18' E 006°02'1111.5
2014-Oct-17 12:28N 42°11' E 005°51'1112.1
2014-Oct-17 11:32N 42°04' E 005°40'2612.5
2014-Oct-17 09:27N 41°45' E 005°15'2312.2
2014-Oct-17 07:33N 41°29' E 004°53'10312.3
2014-Oct-16 23:09N 40°19' E 003°13'712.2
2014-Oct-16 22:32N 40°14' E 003°06'1212.3
2014-Oct-16 21:33N 40°05' E 002°54'1212.4
2014-Oct-16 20:33N 39°57' E 002°43'1212.2
2014-Oct-16 19:33N 39°48' E 002°31'1312.6
2014-Oct-16 18:33N 39°40' E 002°19'1010.3
2014-Oct-16 17:33N 39°30' E 002°22'1010.3
2014-Oct-16 16:33N 39°28' E 002°35'5 5.2
2014-Oct-16 15:32N 39°33' E 002°38'0 0.0
2014-Oct-16 14:33N 39°33' E 002°38'0 0.0
2014-Oct-16 13:33N 39°33' E 002°38'0 0.0
2014-Oct-16 12:33N 39°33' E 002°38'3 3.5
2014-Oct-16 11:33N 39°29' E 002°36'1010.4
2014-Oct-16 10:33N 39°22' E 002°27'1212.4
2014-Oct-16 09:33N 39°12' E 002°17'1111.5
2014-Oct-16 08:33N 39°04' E 002°07'1211.9
2014-Oct-16 07:33N 38°55' E 001°57'1211.2
2014-Oct-16 06:29N 38°44' E 001°50'10411.6
2014-Oct-15 21:33N 37°39' E 000°07'1211.9
2014-Oct-15 20:33N 37°31' W 000°05'1211.9
2014-Oct-15 19:33N 37°24' W 000°17'1211.8
2014-Oct-15 18:33N 37°17' W 000°29'814.0
2014-Oct-15 18:00N 37°12' W 000°36'610.2 270 / 101015.227.0 0.521.015.922.7
2014-Oct-15 17:27N 37°09' W 000°42'1112.5
2014-Oct-15 16:33N 37°03' W 000°53'1512.8
2014-Oct-15 15:24N 36°54' W 001°08'20512.2
2014-Oct-14 22:33N 35°59' W 005°14'2114.9
2014-Oct-14 21:09N 35°54' W 005°39'4113.0
2014-Oct-14 18:00N 35°54' W 006°30'15112.6 280 / 81014.910.8 0.521.013.022.4
2014-Oct-14 06:00N 36°36' W 009°30'16413.7 270 / 81011.010.8 1.019.112.722.3
2014-Oct-13 18:00N 39°18' W 010°06'   290 / 121010.610.8 1.018.512.319.3
Track history (hours):
 
Tides and Currents Weather Stations Pressure Air Temp Water Temp Dewpoint Dewpoint Depression Visibility Wind Speed Wind Dir Waves Ship Positions

Ankergracht

Last reported at 2014-Oct-23 18:00 UTC. Time now 2014-Oct-24 08:37 UTC.
Position N 37°12' E 018°00'.

Length 130 m; beam 19 m; draft 9 m.

Type: Ship (hazmat cat A). MMSI: 244852000.

Wind from 320 at 10 knots

Barometer 1007.2 mb
Air temperature 15.1 ° C
Visibility: greater than 5.4 NM
Dewpoint 13.4 ° C
Water temperature 23.6 ° C

Date/timePositionNaut miles runAvg speedWind from/ knotsBaromVisibWave heightAir tempDewpointWater temp
2014-Oct-23 18:00N 37°12' E 018°00'9714.4 320 / 101007.2 5.4 15.113.423.6
2014-Oct-23 11:16N 37°45' E 016°05'1113.9
2014-Oct-23 10:30N 37°48' E 015°53'2712.9
2014-Oct-23 08:25N 38°11' E 015°35'1011.4
2014-Oct-23 07:32N 38°21' E 015°37'1514.9
2014-Oct-23 06:33N 38°31' E 015°23'1614.4
2014-Oct-23 05:28N 38°42' E 015°09'32012.7
2014-Oct-22 04:21N 42°32' E 010°17'2412.4
2014-Oct-22 02:24N 42°50' E 009°53'1212.3
2014-Oct-22 01:27N 42°58' E 009°43'1111.8
2014-Oct-22 00:33N 43°08' E 009°37'1111.1
2014-Oct-21 23:33N 43°18' E 009°31'1110.6
2014-Oct-21 22:33N 43°28' E 009°26'1212.0
2014-Oct-21 21:33N 43°40' E 009°21'3 3.4
2014-Oct-21 20:33N 43°43' E 009°19'1212.0
2014-Oct-21 19:33N 43°54' E 009°13'8 7.7
2014-Oct-21 18:33N 44°01' E 009°09'6 6.4
2014-Oct-21 17:33N 44°07' E 009°06'6 6.2
2014-Oct-21 16:33N 44°13' E 009°02'4 3.8
2014-Oct-21 15:33N 44°16' E 009°00'3 3.5
2014-Oct-21 14:33N 44°19' E 008°58'5 4.5
2014-Oct-21 13:33N 44°24' E 008°56'2 2.1
2014-Oct-21 12:32N 44°24' E 008°53'0 0.0
2014-Oct-21 11:32N 44°24' E 008°53'0 0.0
2014-Oct-21 10:32N 44°24' E 008°53'0 0.0
2014-Oct-21 09:29N 44°24' E 008°53'0 0.0
2014-Oct-21 08:32N 44°24' E 008°53'0 0.0
2014-Oct-21 07:29N 44°24' E 008°53'0 0.0
2014-Oct-21 06:32N 44°24' E 008°53'0 0.0
2014-Oct-21 05:32N 44°24' E 008°53'0 0.0
2014-Oct-21 04:32N 44°24' E 008°53'0 0.0
2014-Oct-21 03:32N 44°24' E 008°53'0 0.0
2014-Oct-21 02:32N 44°24' E 008°53'0 0.0
2014-Oct-21 01:32N 44°24' E 008°53'0 0.0
2014-Oct-21 00:32N 44°24' E 008°53'0 0.0
2014-Oct-20 23:32N 44°24' E 008°53'0 0.0
2014-Oct-20 22:32N 44°24' E 008°53'0 0.0
2014-Oct-20 21:32N 44°24' E 008°53'0 0.0
2014-Oct-20 20:29N 44°24' E 008°53'0 0.0
2014-Oct-20 19:29N 44°24' E 008°53'0 0.0
2014-Oct-20 18:32N 44°24' E 008°53'0 0.0
2014-Oct-20 17:29N 44°24' E 008°53'0 0.0
2014-Oct-20 16:32N 44°24' E 008°53'0 0.0
2014-Oct-20 15:32N 44°24' E 008°53'0 0.0
2014-Oct-20 14:32N 44°24' E 008°53'0 0.0
2014-Oct-20 13:32N 44°24' E 008°53'0 0.0
2014-Oct-20 12:32N 44°24' E 008°53'0 0.0
2014-Oct-20 11:29N 44°24' E 008°53'0 0.0
2014-Oct-20 10:26N 44°24' E 008°53'0 0.0
2014-Oct-20 09:32N 44°24' E 008°53'0 0.0
2014-Oct-20 08:32N 44°24' E 008°53'0 0.0
2014-Oct-20 07:32N 44°24' E 008°53'0 0.0
2014-Oct-20 06:32N 44°24' E 008°53'0 0.0
2014-Oct-20 05:32N 44°24' E 008°53'0 0.0
2014-Oct-20 04:32N 44°24' E 008°53'0 0.0
2014-Oct-20 03:32N 44°24' E 008°53'0 0.0
2014-Oct-20 02:31N 44°24' E 008°53'0 0.0
2014-Oct-20 01:31N 44°24' E 008°53'0 0.0
2014-Oct-20 00:31N 44°24' E 008°53'0 0.0
2014-Oct-19 23:31N 44°24' E 008°53'0 0.0
2014-Oct-19 22:31N 44°24' E 008°53'0 0.0
2014-Oct-19 21:31N 44°24' E 008°53'0 0.0
2014-Oct-19 20:31N 44°24' E 008°53'0 0.0
2014-Oct-19 19:28N 44°24' E 008°53'0 0.0
2014-Oct-19 18:28N 44°24' E 008°53'0 0.0
2014-Oct-19 17:28N 44°24' E 008°53'0 0.0
2014-Oct-19 16:31N 44°24' E 008°53'0 0.0
2014-Oct-19 15:31N 44°24' E 008°53'0 0.0
2014-Oct-19 14:31N 44°24' E 008°53'0 0.0
2014-Oct-19 13:31N 44°24' E 008°53'0 0.0
2014-Oct-19 12:31N 44°24' E 008°53'0 0.0
2014-Oct-19 11:31N 44°24' E 008°53'0 0.0
2014-Oct-19 10:28N 44°24' E 008°53'0 0.0
2014-Oct-19 09:31N 44°24' E 008°53'0 0.0
2014-Oct-19 08:31N 44°24' E 008°53'0 0.0
2014-Oct-19 07:31N 44°24' E 008°53'0 0.0
2014-Oct-19 06:31N 44°24' E 008°53'0 0.0
2014-Oct-19 05:33N 44°24' E 008°53'0 0.0
2014-Oct-19 04:33N 44°24' E 008°53'0 0.0
2014-Oct-19 03:33N 44°24' E 008°53'0 0.0
2014-Oct-19 02:33N 44°24' E 008°53'0 0.0
2014-Oct-19 01:33N 44°24' E 008°53'0 0.0
2014-Oct-19 00:34N 44°24' E 008°53'0 0.0
2014-Oct-18 23:33N 44°24' E 008°53'0 0.0
2014-Oct-18 22:34N 44°24' E 008°53'0 0.0
2014-Oct-18 21:33N 44°24' E 008°53'0 0.0
2014-Oct-18 20:33N 44°24' E 008°53'0 0.0
2014-Oct-18 19:33N 44°24' E 008°53'0 0.0
2014-Oct-18 18:33N 44°24' E 008°53'0 0.0
2014-Oct-18 17:33N 44°24' E 008°53'0 0.0
2014-Oct-18 16:33N 44°24' E 008°53'0 0.0
2014-Oct-18 15:34N 44°24' E 008°53'0 0.2
2014-Oct-18 14:33N 44°24' E 008°54'6 5.6
2014-Oct-18 13:33N 44°20' E 008°59'1010.5
2014-Oct-18 12:34N 44°20' E 008°44'1010.2
2014-Oct-18 11:32N 44°19' E 008°30'0 0.0
2014-Oct-18 08:33N 44°19' E 008°30'0 0.0
2014-Oct-18 05:03N 44°19' E 008°30'0 0.9
2014-Oct-18 04:33N 44°19' E 008°30'4 3.9
2014-Oct-18 03:33N 44°15' E 008°31'1110.4
2014-Oct-18 02:32N 44°06' E 008°24'2911.6
2014-Oct-18 00:00N 43°42' E 008°00'23 9.4 010 / 81018.010.8 0.520.018.022.2
2014-Oct-17 21:33N 43°25' E 007°39'1211.8
2014-Oct-17 20:33N 43°17' E 007°27'1211.8
2014-Oct-17 19:33N 43°09' E 007°16'1211.9
2014-Oct-17 18:33N 43°01' E 007°03'1211.9
2014-Oct-17 17:33N 42°53' E 006°51'1211.7
2014-Oct-17 16:33N 42°45' E 006°40'1211.8
2014-Oct-17 15:33N 42°37' E 006°28'2712.3
2014-Oct-17 13:23N 42°18' E 006°02'1111.5
2014-Oct-17 12:28N 42°11' E 005°51'1112.1
2014-Oct-17 11:32N 42°04' E 005°40'2612.5
2014-Oct-17 09:27N 41°45' E 005°15'2312.2
2014-Oct-17 07:33N 41°29' E 004°53'10312.3
2014-Oct-16 23:09N 40°19' E 003°13'712.2
2014-Oct-16 22:32N 40°14' E 003°06'1212.3
2014-Oct-16 21:33N 40°05' E 002°54'1212.4
2014-Oct-16 20:33N 39°57' E 002°43'1212.2
2014-Oct-16 19:33N 39°48' E 002°31'1312.6
2014-Oct-16 18:33N 39°40' E 002°19'1010.3
2014-Oct-16 17:33N 39°30' E 002°22'1010.3
2014-Oct-16 16:33N 39°28' E 002°35'5 5.2
2014-Oct-16 15:32N 39°33' E 002°38'0 0.0
2014-Oct-16 14:33N 39°33' E 002°38'0 0.0
2014-Oct-16 13:33N 39°33' E 002°38'0 0.0
2014-Oct-16 12:33N 39°33' E 002°38'3 3.5
2014-Oct-16 11:33N 39°29' E 002°36'1010.4
2014-Oct-16 10:33N 39°22' E 002°27'1212.4
2014-Oct-16 09:33N 39°12' E 002°17'1111.5
2014-Oct-16 08:33N 39°04' E 002°07'1211.9
2014-Oct-16 07:33N 38°55' E 001°57'1211.2
2014-Oct-16 06:29N 38°44' E 001°50'10411.6
2014-Oct-15 21:33N 37°39' E 000°07'1211.9
2014-Oct-15 20:33N 37°31' W 000°05'1211.9
2014-Oct-15 19:33N 37°24' W 000°17'1211.8
2014-Oct-15 18:33N 37°17' W 000°29'814.0
2014-Oct-15 18:00N 37°12' W 000°36'610.2 270 / 101015.227.0 0.521.015.922.7
2014-Oct-15 17:27N 37°09' W 000°42'1112.5
2014-Oct-15 16:33N 37°03' W 000°53'1512.8
2014-Oct-15 15:24N 36°54' W 001°08'20512.2
2014-Oct-14 22:33N 35°59' W 005°14'2114.9
2014-Oct-14 21:09N 35°54' W 005°39'4113.0
2014-Oct-14 18:00N 35°54' W 006°30'15112.6 280 / 81014.910.8 0.521.013.022.4
2014-Oct-14 06:00N 36°36' W 009°30'16413.7 270 / 81011.010.8 1.019.112.722.3
2014-Oct-13 18:00N 39°18' W 010°06'   290 / 121010.610.8 1.018.512.319.3

Dump ship's entire track history